Time;durP1;ratioP1;P1;durP2;ratioP2;P2;SDS_P1;SDS_P2;PMS_P1;PMS_P2;Temp;Humidity;BMP_temperature;BMP_pressure;BME280_temperature;BME280_humidity;BME280_pressure;Samples;Min_cycle;Max_cycle;Signal;HPM_P1;HPM_P2
2022/02/08 00:00:03;;;;;;;50.13;6.03;;;;;;;;;;5020817;28;20529;-66
2022/02/08 00:02:34;;;;;;;43.63;5.85;;;;;;;;;;5021038;28;20502;-66
2022/02/08 00:05:06;;;;;;;43.42;6.70;;;;;;;;;;5015474;28;20049;-66
2022/02/08 00:07:33;;;;;;;52.80;6.53;;;;;;;;;;5019066;28;20171;-66
2022/02/08 00:10:00;;;;;;;56.47;6.18;;;;;;;;;;5022655;28;20450;-66
2022/02/08 00:12:26;;;;;;;56.78;6.40;;;;;;;;;;5021414;28;20090;-66
2022/02/08 00:14:54;;;;;;;50.70;6.15;;;;;;;;;;5019231;28;21046;-66
2022/02/08 00:17:21;;;;;;;55.28;6.30;;;;;;;;;;5021750;28;20578;-66
2022/02/08 00:19:47;;;;;;;52.73;5.93;;;;;;;;;;5023607;28;20137;-65
2022/02/08 00:22:14;;;;;;;53.03;6.37;;;;;;;;;;5021823;28;20564;-65
2022/02/08 00:24:40;;;;;;;52.60;6.13;;;;;;;;;;5021559;28;20461;-65
2022/02/08 00:27:07;;;;;;;46.33;6.75;;;;;;;;;;5023610;28;20136;-65
2022/02/08 00:29:34;;;;;;;38.20;5.07;;;;;;;;;;5006880;28;20120;-66
2022/02/08 00:32:00;;;;;;;47.88;6.00;;;;;;;;;;5022415;28;20138;-65
2022/02/08 00:34:27;;;;;;;36.00;4.30;;;;;;;;;;5023078;28;20133;-65
2022/02/08 00:37:00;;;;;;;32.33;6.63;;;;;;;;;;5021544;28;20172;-65
2022/02/08 00:39:29;;;;;;;40.65;5.50;;;;;;;;;;5022148;28;20070;-65
2022/02/08 00:42:03;;;;;;;43.83;5.25;;;;;;;;;;5021056;28;20081;-66
2022/02/08 00:44:42;;;;;;;31.50;5.90;;;;;;;;;;5021641;28;20055;-67
2022/02/08 00:49:47;;;;;;;35.88;3.70;;;;;;;;;;5020630;28;20139;-67
2022/02/08 00:52:15;;;;;;;26.30;3.13;;;;;;;;;;5021564;28;20777;-67
2022/02/08 00:54:46;;;;;;;27.00;3.63;;;;;;;;;;5023310;28;20139;-67
2022/02/08 00:57:13;;;;;;;24.20;3.03;;;;;;;;;;5021220;28;20180;-67
2022/02/08 00:59:39;;;;;;;29.00;3.40;;;;;;;;;;5021594;28;20160;-67
2022/02/08 01:02:06;;;;;;;21.23;4.27;;;;;;;;;;5021089;28;20144;-67
2022/02/08 01:04:34;;;;;;;28.20;4.07;;;;;;;;;;5011131;28;20395;-68
2022/02/08 01:07:05;;;;;;;22.88;3.85;;;;;;;;;;5017546;28;20124;-67
2022/02/08 01:12:17;;;;;;;36.10;4.60;;;;;;;;;;5022063;28;20076;-67
2022/02/08 01:14:46;;;;;;;40.97;5.40;;;;;;;;;;5027184;28;20085;-67
2022/02/08 01:17:14;;;;;;;34.42;4.78;;;;;;;;;;5020866;28;20045;-67
2022/02/08 01:20:31;;;;;;;31.02;4.53;;;;;;;;;;5017028;28;20136;-67
2022/02/08 01:22:32;;;;;;;40.47;5.65;;;;;;;;;;5008205;28;20137;-67
2022/02/08 01:24:59;;;;;;;41.03;5.38;;;;;;;;;;5016678;28;20128;-67
2022/02/08 01:27:30;;;;;;;43.05;5.30;;;;;;;;;;5015132;28;20137;-67
2022/02/08 01:30:00;;;;;;;44.42;5.45;;;;;;;;;;5015668;28;20140;-67
2022/02/08 01:35:24;;;;;;;57.80;6.97;;;;;;;;;;5016694;28;20145;-67
2022/02/08 01:51:26;;;;;;;51.90;7.00;;;;;;;;;;4955763;28;20129;-67
2022/02/08 01:53:52;;;;;;;56.00;6.82;;;;;;;;;;4956204;28;20058;-67
2022/02/08 01:56:19;;;;;;;58.05;6.70;;;;;;;;;;4984415;28;20061;-67
2022/02/08 01:58:45;;;;;;;60.72;7.43;;;;;;;;;;5015255;28;20149;-67
2022/02/08 02:01:19;;;;;;;51.15;5.57;;;;;;;;;;5016362;28;20298;-67
2022/02/08 02:03:46;;;;;;;69.40;6.82;;;;;;;;;;5016853;28;20053;-67
2022/02/08 02:06:32;;;;;;;61.75;6.55;;;;;;;;;;5014252;28;20046;-67
2022/02/08 02:08:59;;;;;;;44.45;5.05;;;;;;;;;;5015898;28;20171;-67
2022/02/08 02:11:25;;;;;;;61.90;7.40;;;;;;;;;;5015697;28;20141;-67
2022/02/08 02:13:52;;;;;;;64.45;8.02;;;;;;;;;;5016400;28;20045;-67
2022/02/08 02:16:26;;;;;;;;;;;;;;;;;;5016045;28;20056;-67
2022/02/08 02:18:52;;;;;;;52.72;7.28;;;;;;;;;;5014574;28;20106;-67
2022/02/08 02:21:19;;;;;;;56.90;6.10;;;;;;;;;;5016342;28;20132;-67
2022/02/08 02:23:46;;;;;;;;;;;;;;;;;;5015677;28;20060;-67
2022/02/08 02:26:13;;;;;;;40.75;5.53;;;;;;;;;;5016250;28;20019;-67
2022/02/08 02:28:39;;;;;;;52.42;5.45;;;;;;;;;;5015729;28;20107;-67
2022/02/08 02:31:06;;;;;;;54.17;5.13;;;;;;;;;;5014341;28;20045;-67
2022/02/08 02:33:33;;;;;;;45.28;4.82;;;;;;;;;;5014975;28;20143;-67
2022/02/08 02:36:00;;;;;;;55.65;6.57;;;;;;;;;;5016470;28;21019;-67
2022/02/08 02:38:27;;;;;;;52.35;5.97;;;;;;;;;;5013212;28;20529;-67
2022/02/08 02:40:53;;;;;;;48.20;5.20;;;;;;;;;;5014473;28;20128;-67
2022/02/08 02:43:20;;;;;;;43.28;5.30;;;;;;;;;;5014446;28;20651;-67
2022/02/08 02:45:47;;;;;;;46.55;5.55;;;;;;;;;;5015566;28;20045;-67
2022/02/08 02:48:14;;;;;;;34.88;4.25;;;;;;;;;;5012680;28;20131;-67
2022/02/08 02:50:41;;;;;;;54.22;5.15;;;;;;;;;;5014951;28;20478;-67
2022/02/08 02:53:08;;;;;;;64.30;6.60;;;;;;;;;;5015430;28;20077;-67
2022/02/08 02:55:35;;;;;;;45.92;4.55;;;;;;;;;;5013332;28;20130;-67
2022/02/08 02:58:03;;;;;;;32.65;4.15;;;;;;;;;;5013989;28;20041;-67
2022/02/08 03:00:43;;;;;;;41.15;4.53;;;;;;;;;;5015022;28;20541;-67
2022/02/08 03:19:54;;;;;;;25.77;3.13;;;;;;;;;;5020410;28;20131;-67
2022/02/08 03:22:24;;;;;;;31.80;4.00;;;;;;;;;;5020826;28;20682;-67
2022/02/08 03:24:50;;;;;;;23.88;2.97;;;;;;;;;;5018290;28;20080;-67
2022/02/08 03:27:17;;;;;;;21.85;3.25;;;;;;;;;;5021854;28;20089;-67
2022/02/08 03:29:50;;;;;;;30.17;4.35;;;;;;;;;;5020172;28;20805;-67
2022/02/08 03:32:19;;;;;;;38.40;5.55;;;;;;;;;;5020204;28;20124;-67
2022/02/08 03:34:46;;;;;;;34.03;4.43;;;;;;;;;;5020395;28;20051;-67
2022/02/08 03:37:19;;;;;;;29.20;3.67;;;;;;;;;;5018460;28;20136;-67
2022/02/08 03:39:55;;;;;;;30.40;3.78;;;;;;;;;;5020018;28;20250;-67
2022/02/08 03:42:31;;;;;;;;;;;;;;;;;;5005266;28;20077;-67
2022/02/08 03:44:59;;;;;;;29.77;3.88;;;;;;;;;;5020612;28;20007;-67
2022/02/08 03:47:26;;;;;;;42.80;4.38;;;;;;;;;;5018742;28;20661;-67
2022/02/08 03:49:53;;;;;;;23.00;3.83;;;;;;;;;;5023690;28;20096;-66
2022/02/08 03:52:23;;;;;;;21.13;2.85;;;;;;;;;;5023428;28;20085;-67
2022/02/08 03:54:56;;;;;;;20.63;3.40;;;;;;;;;;5022255;28;20140;-67
2022/02/08 03:57:25;;;;;;;23.58;3.17;;;;;;;;;;5022419;28;20141;-67
2022/02/08 03:59:51;;;;;;;19.17;3.03;;;;;;;;;;5023235;28;20072;-67
2022/02/08 04:05:25;;;;;;;22.80;3.17;;;;;;;;;;5022692;28;20080;-67
2022/02/08 04:07:56;;;;;;;18.80;3.00;;;;;;;;;;5023129;28;20172;-67
2022/02/08 04:10:26;;;;;;;17.45;2.58;;;;;;;;;;5007379;28;20175;-67
2022/02/08 04:34:47;;;;;;;4.38;1.70;;;;;;;;;;5021927;28;20053;-67
2022/02/08 04:50:25;;;;;;;3.95;1.48;;;;;;;;;;5021800;28;20133;-67
2022/02/08 04:52:57;;;;;;;5.57;1.27;;;;;;;;;;5021448;28;20129;-67
2022/02/08 04:55:41;;;;;;;11.30;2.30;;;;;;;;;;5020950;28;20056;-67
2022/02/08 05:00:59;;;;;;;3.70;1.60;;;;;;;;;;5020618;28;20593;-67
2022/02/08 05:44:42;;;;;;;3.70;1.40;;;;;;;;;;5020434;28;20139;-67
2022/02/08 05:47:15;;;;;;;17.35;2.08;;;;;;;;;;5022240;28;20077;-67
2022/02/08 05:49:45;;;;;;;15.03;2.37;;;;;;;;;;5022028;28;20052;-67
2022/02/08 05:54:39;;;;;;;14.10;2.40;;;;;;;;;;5021370;28;20128;-67
2022/02/08 05:57:06;;;;;;;17.33;2.42;;;;;;;;;;5021412;28;20631;-67
2022/02/08 05:59:32;;;;;;;13.23;3.03;;;;;;;;;;5023217;28;20136;-67
2022/02/08 06:01:59;;;;;;;27.65;3.05;;;;;;;;;;5017654;28;20049;-67
2022/02/08 06:04:27;;;;;;;19.15;3.30;;;;;;;;;;5029121;28;20060;-67
2022/02/08 06:06:53;;;;;;;14.60;2.35;;;;;;;;;;5038549;28;20127;-67
2022/02/08 06:09:21;;;;;;;;;;;;;;;;;;5038759;28;20056;-67
2022/02/08 06:11:48;;;;;;;21.25;2.60;;;;;;;;;;5037058;28;19931;-67
2022/02/08 06:14:14;;;;;;;15.20;2.55;;;;;;;;;;5038932;28;20045;-67
2022/02/08 06:16:43;;;;;;;25.80;3.20;;;;;;;;;;5038565;28;20173;-67
2022/02/08 06:19:09;;;;;;;10.65;2.50;;;;;;;;;;5041216;28;20148;-67
2022/02/08 06:21:36;;;;;;;22.92;3.40;;;;;;;;;;5044466;28;20206;-67
2022/02/08 06:24:02;;;;;;;36.03;4.33;;;;;;;;;;5044172;28;20507;-67
2022/02/08 06:26:29;;;;;;;23.42;3.78;;;;;;;;;;5038568;28;20167;-67
2022/02/08 06:29:06;;;;;;;40.75;4.93;;;;;;;;;;5042372;28;20135;-67
2022/02/08 06:31:33;;;;;;;20.92;3.92;;;;;;;;;;5042176;28;20453;-67
2022/02/08 06:34:00;;;;;;;37.87;5.30;;;;;;;;;;5039495;28;20095;-67
2022/02/08 06:36:26;;;;;;;35.45;4.15;;;;;;;;;;5036568;28;20136;-67
2022/02/08 06:38:55;;;;;;;36.45;4.28;;;;;;;;;;5037391;28;20048;-67
2022/02/08 06:41:21;;;;;;;28.33;5.38;;;;;;;;;;5039743;28;20440;-67
2022/02/08 06:43:48;;;;;;;35.47;5.05;;;;;;;;;;5038647;28;20094;-67
2022/02/08 06:46:15;;;;;;;37.67;4.97;;;;;;;;;;5038512;28;20211;-67
2022/02/08 06:48:41;;;;;;;39.97;5.22;;;;;;;;;;5036467;28;20582;-67
2022/02/08 06:51:08;;;;;;;40.78;5.43;;;;;;;;;;5035469;28;20139;-66
2022/02/08 06:53:36;;;;;;;46.15;5.72;;;;;;;;;;5037968;28;20144;-67
2022/02/08 06:56:03;;;;;;;29.35;5.25;;;;;;;;;;5040048;28;20080;-67
2022/02/08 06:58:35;;;;;;;55.47;5.95;;;;;;;;;;5045776;28;20141;-67
2022/02/08 07:01:04;;;;;;;44.60;6.10;;;;;;;;;;5043693;28;20160;-67
2022/02/08 07:03:32;;;;;;;43.47;5.07;;;;;;;;;;5036590;28;20060;-67
2022/02/08 07:05:58;;;;;;;40.50;4.82;;;;;;;;;;5036314;28;20326;-68
2022/02/08 07:08:37;;;;;;;41.88;5.28;;;;;;;;;;5039173;28;20144;-67
2022/02/08 07:11:03;;;;;;;30.50;4.72;;;;;;;;;;5036198;28;20083;-67
2022/02/08 07:13:30;;;;;;;38.42;5.28;;;;;;;;;;5036262;28;20148;-67
2022/02/08 07:15:56;;;;;;;39.65;5.32;;;;;;;;;;5037977;28;20055;-67
2022/02/08 07:18:23;;;;;;;46.97;6.72;;;;;;;;;;5042297;28;20089;-67
2022/02/08 07:20:51;;;;;;;46.30;6.55;;;;;;;;;;5037288;28;20648;-67
2022/02/08 07:23:17;;;;;;;49.07;6.17;;;;;;;;;;5035347;28;20054;-67
2022/02/08 07:25:43;;;;;;;51.25;6.88;;;;;;;;;;5040535;28;20136;-67
2022/02/08 07:28:17;;;;;;;45.95;6.13;;;;;;;;;;5042456;28;20164;-67
2022/02/08 07:30:44;;;;;;;47.20;7.43;;;;;;;;;;5042361;28;20518;-67
2022/02/08 07:33:10;;;;;;;38.20;4.95;;;;;;;;;;5040193;28;20084;-67
2022/02/08 07:38:35;;;;;;;49.92;5.35;;;;;;;;;;5045882;28;20120;-67
2022/02/08 07:43:29;;;;;;;52.65;6.03;;;;;;;;;;5042666;28;20077;-67
2022/02/08 07:46:05;;;;;;;53.80;7.57;;;;;;;;;;5042674;28;20081;-67
2022/02/08 07:48:32;;;;;;;51.90;5.60;;;;;;;;;;5044938;28;20575;-67
2022/02/08 07:50:59;;;;;;;61.80;8.70;;;;;;;;;;5043342;28;20141;-67
2022/02/08 07:53:27;;;;;;;51.95;7.20;;;;;;;;;;5043779;28;20081;-67
2022/02/08 07:55:56;;;;;;;37.55;5.03;;;;;;;;;;5042502;28;20136;-67
2022/02/08 07:58:24;;;;;;;35.63;5.78;;;;;;;;;;5039408;28;20962;-67
2022/02/08 08:00:51;;;;;;;46.75;5.82;;;;;;;;;;5040516;28;20052;-67
2022/02/08 08:03:31;;;;;;;47.90;6.00;;;;;;;;;;5041288;28;20544;-67
2022/02/08 08:05:57;;;;;;;55.58;6.40;;;;;;;;;;5040324;28;20172;-67
2022/02/08 08:08:24;;;;;;;64.95;7.95;;;;;;;;;;5039431;28;20048;-67
2022/02/08 08:10:50;;;;;;;32.83;5.63;;;;;;;;;;5040826;28;20143;-67
2022/02/08 08:13:19;;;;;;;33.70;5.18;;;;;;;;;;5040096;28;20329;-67
2022/02/08 08:15:53;;;;;;;60.65;7.38;;;;;;;;;;5039834;28;20064;-67
2022/02/08 08:18:42;;;;;;;32.30;5.40;;;;;;;;;;5041016;28;20588;-67
2022/02/08 08:21:09;;;;;;;37.35;5.20;;;;;;;;;;5043168;28;20159;-67
2022/02/08 08:23:36;;;;;;;35.63;5.18;;;;;;;;;;5044622;28;20561;-67
2022/02/08 08:26:03;;;;;;;45.08;6.63;;;;;;;;;;5044253;28;20577;-67
2022/02/08 08:28:29;;;;;;;49.03;6.22;;;;;;;;;;5038751;28;20460;-67
2022/02/08 08:30:56;;;;;;;44.10;6.10;;;;;;;;;;5040544;28;20080;-67
2022/02/08 08:33:24;;;;;;;44.83;5.35;;;;;;;;;;5041717;28;20128;-67
2022/02/08 08:36:11;;;;;;;47.70;6.25;;;;;;;;;;5048089;28;20136;-67
2022/02/08 08:38:45;;;;;;;33.28;4.45;;;;;;;;;;5045508;28;20053;-65
2022/02/08 08:41:26;;;;;;;;;;;;;;;;;;5044271;28;20528;-65
2022/02/08 08:52:17;;;;;;;44.15;5.22;;;;;;;;;;5047146;28;20599;-65
2022/02/08 08:54:45;;;;;;;44.38;6.53;;;;;;;;;;5045722;28;20099;-65
2022/02/08 08:57:11;;;;;;;50.28;6.82;;;;;;;;;;5043233;28;20128;-65
2022/02/08 08:59:38;;;;;;;54.53;7.32;;;;;;;;;;5042877;28;20080;-65
2022/02/08 09:02:05;;;;;;;45.22;6.80;;;;;;;;;;5042703;28;20084;-65
2022/02/08 09:04:39;;;;;;;44.60;5.78;;;;;;;;;;5044745;28;20092;-66
2022/02/08 09:07:06;;;;;;;46.72;6.03;;;;;;;;;;5042426;28;20504;-66
2022/02/08 09:09:36;;;;;;;39.28;6.45;;;;;;;;;;5044226;28;20512;-65
2022/02/08 09:12:20;;;;;;;47.10;6.13;;;;;;;;;;5041004;28;20126;-67
2022/02/08 09:17:55;;;;;;;51.00;7.22;;;;;;;;;;5044473;28;20546;-66
2022/02/08 09:26:36;;;;;;;40.15;5.32;;;;;;;;;;5041884;28;20049;-66
2022/02/08 09:29:07;;;;;;;43.60;6.15;;;;;;;;;;5044538;28;20080;-66
2022/02/08 09:31:37;;;;;;;42.55;5.93;;;;;;;;;;5044214;28;20049;-66
2022/02/08 09:34:03;;;;;;;;;;;;;;;;;;5039439;28;20483;-66
2022/02/08 09:36:30;;;;;;;37.33;5.18;;;;;;;;;;5038849;28;19974;-65
2022/02/08 09:38:57;;;;;;;32.88;5.05;;;;;;;;;;5038109;28;20175;-66
2022/02/08 09:41:24;;;;;;;36.58;5.00;;;;;;;;;;5039448;28;22202;-65
2022/02/08 09:43:51;;;;;;;35.00;5.55;;;;;;;;;;5037594;28;20186;-65
2022/02/08 09:46:24;;;;;;;34.03;5.03;;;;;;;;;;5039369;28;20081;-66
2022/02/08 09:48:56;;;;;;;36.75;5.55;;;;;;;;;;5037875;28;20048;-66
2022/02/08 09:51:23;;;;;;;30.92;5.07;;;;;;;;;;5038018;28;20168;-65
2022/02/08 09:54:00;;;;;;;28.83;5.00;;;;;;;;;;5038865;28;20134;-66
2022/02/08 09:56:27;;;;;;;35.22;5.18;;;;;;;;;;5026565;28;20170;-65
2022/02/08 09:58:54;;;;;;;39.63;5.55;;;;;;;;;;5037800;28;20504;-66
2022/02/08 10:01:22;;;;;;;32.60;4.90;;;;;;;;;;5039471;28;20051;-66
2022/02/08 10:03:52;;;;;;;31.45;5.10;;;;;;;;;;5036952;28;20044;-66
2022/02/08 10:06:19;;;;;;;34.20;4.97;;;;;;;;;;5040455;28;20160;-65
2022/02/08 10:08:45;;;;;;;35.92;4.70;;;;;;;;;;5039772;28;20137;-65
2022/02/08 10:11:14;;;;;;;23.93;4.23;;;;;;;;;;5038136;28;20140;-65
2022/02/08 10:14:16;;;;;;;37.75;5.20;;;;;;;;;;5040365;28;20168;-65
2022/02/08 10:20:13;;;;;;;26.90;4.47;;;;;;;;;;5037902;28;20045;-65
2022/02/08 10:22:33;;;;;;;33.30;5.30;;;;;;;;;;5037462;28;20448;-65
2022/02/08 10:25:08;;;;;;;29.35;6.05;;;;;;;;;;5038958;28;20140;-65
2022/02/08 10:30:27;;;;;;;27.92;5.07;;;;;;;;;;5038686;28;20603;-65
2022/02/08 10:38:40;;;;;;;30.48;6.05;;;;;;;;;;5038939;28;20149;-65
2022/02/08 10:41:14;;;;;;;24.85;4.55;;;;;;;;;;5036432;28;20131;-66
2022/02/08 10:44:02;;;;;;;26.05;4.80;;;;;;;;;;5037534;28;20057;-65
2022/02/08 10:46:29;;;;;;;25.50;4.20;;;;;;;;;;5038222;28;20129;-65
2022/02/08 10:49:06;;;;;;;35.63;5.32;;;;;;;;;;5038073;28;20065;-65
2022/02/08 10:51:46;;;;;;;36.28;5.35;;;;;;;;;;5036076;28;20053;-65
2022/02/08 10:54:25;;;;;;;33.50;6.50;;;;;;;;;;5037942;28;20167;-65
2022/02/08 10:57:00;;;;;;;31.33;5.95;;;;;;;;;;5043462;28;20159;-65
2022/02/08 10:59:36;;;;;;;26.58;4.65;;;;;;;;;;5042911;28;20103;-65
2022/02/08 11:02:17;;;;;;;28.77;5.03;;;;;;;;;;5037105;28;20053;-65
2022/02/08 11:04:58;;;;;;;34.55;5.95;;;;;;;;;;5036983;28;20077;-65
2022/02/08 11:21:02;;;;;;;21.15;4.53;;;;;;;;;;5044501;28;20131;-65
2022/02/08 11:23:32;;;;;;;31.95;4.13;;;;;;;;;;5041385;28;20114;-64
2022/02/08 11:26:01;;;;;;;24.10;4.68;;;;;;;;;;5041376;28;20140;-65
2022/02/08 11:28:41;;;;;;;30.00;4.80;;;;;;;;;;5042355;28;20133;-65
2022/02/08 11:42:50;;;;;;;24.73;4.10;;;;;;;;;;5038907;28;20053;-64
2022/02/08 11:55:46;;;;;;;22.73;4.03;;;;;;;;;;5037636;28;20394;-64
2022/02/08 11:58:24;;;;;;;29.70;4.70;;;;;;;;;;5042417;28;20136;-64
2022/02/08 12:01:01;;;;;;;19.17;3.88;;;;;;;;;;5038349;28;20156;-64
2022/02/08 12:09:07;;;;;;;27.67;4.32;;;;;;;;;;5015306;28;20100;-64
2022/02/08 12:12:04;;;;;;;20.65;3.80;;;;;;;;;;5018333;28;20065;-64
2022/02/08 12:31:32;;;;;;;26.07;4.43;;;;;;;;;;5023717;28;20530;-64
2022/02/08 12:56:56;;;;;;;24.33;3.78;;;;;;;;;;5020510;28;20140;-63
2022/02/08 12:59:44;;;;;;;23.05;3.92;;;;;;;;;;5020840;28;20113;-63
2022/02/08 13:02:22;;;;;;;30.35;4.43;;;;;;;;;;5022066;28;20209;-63
2022/02/08 13:18:58;;;;;;;18.83;3.70;;;;;;;;;;5019365;28;20049;-63
2022/02/08 14:01:40;;;;;;;18.40;3.85;;;;;;;;;;5020059;28;20133;-63
2022/02/08 14:08:32;;;;;;;18.02;3.92;;;;;;;;;;5018595;28;20148;-63
2022/02/08 14:21:54;;;;;;;28.95;4.47;;;;;;;;;;5023519;28;20076;-63
2022/02/08 14:25:18;;;;;;;37.38;5.30;;;;;;;;;;5018850;28;20049;-63
2022/02/08 14:30:29;;;;;;;39.40;5.07;;;;;;;;;;5017333;28;20667;-63
2022/02/08 14:33:08;;;;;;;24.75;3.35;;;;;;;;;;5018370;28;20183;-63
2022/02/08 14:36:06;;;;;;;38.35;5.35;;;;;;;;;;5017628;28;20044;-63
2022/02/08 15:06:00;;;;;;;25.80;3.55;;;;;;;;;;5016740;28;20144;-62
2022/02/08 15:08:30;;;;;;;18.23;3.13;;;;;;;;;;5017972;28;20073;-62
2022/02/08 15:11:04;;;;;;;25.05;3.30;;;;;;;;;;5016513;28;20136;-63
2022/02/08 15:13:31;;;;;;;25.90;3.50;;;;;;;;;;5017263;28;20450;-63
2022/02/08 15:16:14;;;;;;;17.13;3.10;;;;;;;;;;5016538;28;20084;-62
2022/02/08 15:18:41;;;;;;;20.02;3.10;;;;;;;;;;5017433;28;20053;-62
2022/02/08 15:21:15;;;;;;;23.63;3.67;;;;;;;;;;5015969;28;20580;-63
2022/02/08 15:23:41;;;;;;;21.27;3.53;;;;;;;;;;5018075;28;20131;-62
2022/02/08 15:26:08;;;;;;;23.63;4.05;;;;;;;;;;5018083;28;20073;-62
2022/02/08 15:28:35;;;;;;;18.00;3.23;;;;;;;;;;5017214;28;21232;-63
2022/02/08 15:31:01;;;;;;;18.75;3.72;;;;;;;;;;5016942;28;20133;-63
2022/02/08 15:33:28;;;;;;;22.88;4.35;;;;;;;;;;5019904;28;20109;-62
2022/02/08 15:35:54;;;;;;;24.30;4.13;;;;;;;;;;5019362;28;20121;-63
2022/02/08 15:38:27;;;;;;;25.58;3.92;;;;;;;;;;5019988;28;20124;-62
2022/02/08 15:40:54;;;;;;;26.02;4.15;;;;;;;;;;5023787;28;20107;-62
2022/02/08 15:43:21;;;;;;;34.75;5.10;;;;;;;;;;5020490;28;20133;-62
2022/02/08 15:45:54;;;;;;;21.60;3.38;;;;;;;;;;5018023;28;20057;-62
2022/02/08 15:48:27;;;;;;;24.98;3.58;;;;;;;;;;5023719;28;20103;-63
2022/02/08 15:53:33;;;;;;;22.05;3.70;;;;;;;;;;5022081;28;20160;-62
2022/02/08 16:06:57;;;;;;;27.48;4.53;;;;;;;;;;5025073;28;20507;-62
2022/02/08 16:17:40;;;;;;;33.20;4.80;;;;;;;;;;5025492;28;20133;-62
2022/02/08 16:23:12;;;;;;;34.70;4.63;;;;;;;;;;5022926;28;20439;-63
2022/02/08 16:25:47;;;;;;;27.65;4.32;;;;;;;;;;5025694;28;20100;-63
2022/02/08 16:28:23;;;;;;;36.00;4.65;;;;;;;;;;5025877;28;20089;-62
2022/02/08 16:45:51;;;;;;;30.88;4.45;;;;;;;;;;5024311;28;20077;-62
2022/02/08 16:57:42;;;;;;;32.85;5.65;;;;;;;;;;5021452;28;20077;-62
2022/02/08 17:00:12;;;;;;;19.90;4.20;;;;;;;;;;5023114;28;20476;-62
2022/02/08 17:02:46;;;;;;;41.15;5.13;;;;;;;;;;5019643;28;20092;-63
2022/02/08 17:05:13;;;;;;;38.22;4.70;;;;;;;;;;5024317;28;20096;-63
2022/02/08 17:07:39;;;;;;;39.13;5.05;;;;;;;;;;5026174;28;20456;-62
2022/02/08 17:10:12;;;;;;;33.97;5.23;;;;;;;;;;5024450;28;20081;-62
2022/02/08 17:12:46;;;;;;;38.92;5.63;;;;;;;;;;5024459;28;20144;-62
2022/02/08 17:48:20;;;;;;;23.95;3.67;;;;;;;;;;5021274;28;20561;-63
2022/02/08 17:50:48;;;;;;;28.13;4.63;;;;;;;;;;5019431;28;20136;-63
2022/02/08 17:53:15;;;;;;;25.95;3.55;;;;;;;;;;5020331;28;20096;-63
2022/02/08 17:55:42;;;;;;;32.28;4.07;;;;;;;;;;5021769;28;20085;-63
2022/02/08 17:58:09;;;;;;;24.73;3.85;;;;;;;;;;5020723;28;20136;-63
2022/02/08 18:00:36;;;;;;;22.40;3.80;;;;;;;;;;5021630;28;20053;-63
2022/02/08 18:03:04;;;;;;;28.25;3.63;;;;;;;;;;5024038;28;20045;-63
2022/02/08 18:05:30;;;;;;;;;;;;;;;;;;5022362;28;20486;-63
2022/02/08 18:07:58;;;;;;;29.52;3.80;;;;;;;;;;5017477;28;19925;-63
2022/02/08 18:10:30;;;;;;;28.33;3.13;;;;;;;;;;5023550;28;20053;-63
2022/02/08 18:12:57;;;;;;;;;;;;;;;;;;5024049;28;22966;-63
2022/02/08 18:15:26;;;;;;;28.10;3.72;;;;;;;;;;5022793;28;19975;-63
2022/02/08 18:17:57;;;;;;;23.20;3.83;;;;;;;;;;5019407;28;20350;-63
2022/02/08 18:25:53;;;;;;;30.00;3.78;;;;;;;;;;5019001;28;20140;-63
2022/02/08 18:52:38;;;;;;;33.53;4.15;;;;;;;;;;5019753;28;20128;-63
2022/02/08 19:17:33;;;;;;;46.90;5.90;;;;;;;;;;5017926;28;20281;-63
2022/02/08 19:20:06;;;;;;;39.70;6.03;;;;;;;;;;5016142;28;20132;-63
2022/02/08 19:22:33;;;;;;;53.85;7.55;;;;;;;;;;5020452;28;20179;-63
2022/02/08 19:24:59;;;;;;;42.25;5.80;;;;;;;;;;5022594;28;20129;-63
2022/02/08 19:27:26;;;;;;;50.85;6.13;;;;;;;;;;5018115;28;20140;-63
2022/02/08 19:29:52;;;;;;;44.63;6.55;;;;;;;;;;5017541;28;20589;-63
2022/02/08 19:32:19;;;;;;;41.88;4.93;;;;;;;;;;5020636;28;20077;-63
2022/02/08 19:34:46;;;;;;;41.33;7.00;;;;;;;;;;5021645;28;20089;-63
2022/02/08 19:37:16;;;;;;;37.58;6.03;;;;;;;;;;5022713;28;20045;-63
2022/02/08 19:39:43;;;;;;;38.10;5.38;;;;;;;;;;5021545;28;20133;-63
2022/02/08 19:42:10;;;;;;;47.28;5.90;;;;;;;;;;5019011;28;20474;-63
2022/02/08 19:44:38;;;;;;;44.20;5.80;;;;;;;;;;5018822;28;20472;-63
2022/02/08 19:47:07;;;;;;;49.57;7.23;;;;;;;;;;5020653;28;20057;-65
2022/02/08 19:49:34;;;;;;;39.95;5.28;;;;;;;;;;5021407;28;20350;-63
2022/02/08 19:52:03;;;;;;;35.65;5.40;;;;;;;;;;5019605;28;20097;-63
2022/02/08 19:54:35;;;;;;;38.13;5.03;;;;;;;;;;5016165;28;20131;-63
2022/02/08 19:57:25;;;;;;;30.40;4.60;;;;;;;;;;5022133;28;20081;-63
2022/02/08 19:59:52;;;;;;;35.42;5.05;;;;;;;;;;5021782;28;20153;-63
2022/02/08 20:02:22;;;;;;;34.03;4.65;;;;;;;;;;5017344;28;20133;-63
2022/02/08 20:04:49;;;;;;;37.80;5.28;;;;;;;;;;5016706;28;20490;-64
2022/02/08 20:07:16;;;;;;;34.30;4.80;;;;;;;;;;5020394;28;20168;-63
2022/02/08 20:09:45;;;;;;;38.42;5.15;;;;;;;;;;5019376;28;20079;-63
2022/02/08 20:12:27;;;;;;;32.55;4.55;;;;;;;;;;5019635;28;20053;-63
2022/02/08 20:15:06;;;;;;;38.25;5.13;;;;;;;;;;5021394;28;20053;-63
2022/02/08 20:17:33;;;;;;;40.25;5.38;;;;;;;;;;5023043;28;20128;-63
2022/02/08 20:20:07;;;;;;;31.40;5.15;;;;;;;;;;5020787;28;20484;-63
2022/02/08 20:22:34;;;;;;;44.42;5.80;;;;;;;;;;5021644;28;20124;-63
2022/02/08 20:25:05;;;;;;;30.45;5.63;;;;;;;;;;5018301;28;20716;-63
2022/02/08 20:27:51;;;;;;;33.08;4.97;;;;;;;;;;5016099;28;20573;-63
2022/02/08 20:30:24;;;;;;;;;;;;;;;;;;5019402;28;20038;-63
2022/02/08 20:32:53;;;;;;;42.92;5.50;;;;;;;;;;5022983;28;20011;-63
2022/02/08 20:35:21;;;;;;;38.72;5.32;;;;;;;;;;5021719;28;20525;-63
2022/02/08 20:37:54;;;;;;;29.23;4.13;;;;;;;;;;5023141;28;20138;-63
2022/02/08 20:40:21;;;;;;;34.33;5.03;;;;;;;;;;5020997;28;20076;-63
2022/02/08 20:42:50;;;;;;;60.47;5.53;;;;;;;;;;5019486;28;20140;-63
2022/02/08 20:45:18;;;;;;;43.15;5.50;;;;;;;;;;5024858;28;20375;-63
2022/02/08 20:47:46;;;;;;;35.90;5.00;;;;;;;;;;5022931;28;20196;-63
2022/02/08 20:50:16;;;;;;;36.47;4.85;;;;;;;;;;5020501;28;20045;-63
2022/02/08 20:52:54;;;;;;;33.20;5.57;;;;;;;;;;5022106;28;20095;-63
2022/02/08 20:55:22;;;;;;;31.10;4.35;;;;;;;;;;5023012;28;20136;-63
2022/02/08 20:58:02;;;;;;;44.00;5.90;;;;;;;;;;5021208;28;20141;-63
2022/02/08 21:00:29;;;;;;;31.55;4.90;;;;;;;;;;5024374;28;20099;-64
2022/02/08 21:03:00;;;;;;;39.78;5.32;;;;;;;;;;5021597;28;20060;-63
2022/02/08 21:07:54;;;;;;;46.57;5.23;;;;;;;;;;5044646;28;20139;-63
2022/02/08 21:10:24;;;;;;;38.97;5.28;;;;;;;;;;5043723;28;21044;-63
2022/02/08 21:15:29;;;;;;;44.13;6.13;;;;;;;;;;5041774;28;20833;-63
2022/02/08 21:17:56;;;;;;;45.17;5.28;;;;;;;;;;5042811;28;20088;-63
2022/02/08 21:20:22;;;;;;;41.10;4.82;;;;;;;;;;5046141;28;20072;-63
2022/02/08 21:22:50;;;;;;;45.97;5.70;;;;;;;;;;5037556;28;20092;-63
2022/02/08 21:25:17;;;;;;;57.42;5.63;;;;;;;;;;5043915;28;20103;-63
2022/02/08 21:27:51;;;;;;;42.40;5.53;;;;;;;;;;5043115;28;20351;-63
2022/02/08 21:45:01;;;;;;;44.60;5.60;;;;;;;;;;5041940;28;20099;-63
2022/02/08 21:49:55;;;;;;;35.00;5.55;;;;;;;;;;5044848;28;20144;-63
2022/02/08 21:54:51;;;;;;;53.70;5.80;;;;;;;;;;5039633;28;20693;-63
2022/02/08 21:57:21;;;;;;;53.33;6.25;;;;;;;;;;5039092;28;20137;-63
2022/02/08 21:59:49;;;;;;;47.17;6.03;;;;;;;;;;5037644;28;20525;-63
2022/02/08 22:02:18;;;;;;;37.47;5.75;;;;;;;;;;5043262;28;20073;-63
2022/02/08 22:04:45;;;;;;;34.92;5.32;;;;;;;;;;5026850;28;20140;-63
2022/02/08 22:07:14;;;;;;;52.40;7.07;;;;;;;;;;5020679;28;20149;-63
2022/02/08 22:09:43;;;;;;;41.42;6.10;;;;;;;;;;5021259;28;20079;-63
2022/02/08 22:23:46;;;;;;;60.78;7.13;;;;;;;;;;5020628;28;20087;-63
2022/02/08 22:26:13;;;;;;;36.70;5.97;;;;;;;;;;5018480;28;20073;-63
2022/02/08 22:31:12;;;;;;;43.90;6.65;;;;;;;;;;5021858;28;19952;-63
2022/02/08 22:33:45;;;;;;;38.53;4.97;;;;;;;;;;5021983;28;20103;-63
2022/02/08 22:36:23;;;;;;;30.92;4.63;;;;;;;;;;5025094;28;20568;-63
2022/02/08 22:39:05;;;;;;;46.33;6.68;;;;;;;;;;5022785;28;20483;-63
2022/02/08 22:41:54;;;;;;;39.58;6.47;;;;;;;;;;5020849;28;20099;-64
2022/02/08 22:47:01;;;;;;;46.38;5.75;;;;;;;;;;5020161;28;20057;-63
2022/02/08 22:49:28;;;;;;;42.97;5.88;;;;;;;;;;5022452;28;20542;-63
2022/02/08 22:51:55;;;;;;;53.07;5.73;;;;;;;;;;5023192;28;20083;-63
2022/02/08 22:54:23;;;;;;;45.05;6.95;;;;;;;;;;5022221;28;20453;-63
2022/02/08 22:56:51;;;;;;;44.27;5.10;;;;;;;;;;5022491;28;20750;-63
2022/02/08 22:59:18;;;;;;;42.20;5.65;;;;;;;;;;5021767;28;20296;-63
2022/02/08 23:01:51;;;;;;;47.30;5.47;;;;;;;;;;5019180;28;20045;-63
2022/02/08 23:04:21;;;;;;;31.05;5.07;;;;;;;;;;5021874;28;20056;-63
2022/02/08 23:06:50;;;;;;;48.20;5.55;;;;;;;;;;5018064;28;20137;-64
2022/02/08 23:09:44;;;;;;;41.08;5.72;;;;;;;;;;5017984;28;20081;-63
2022/02/08 23:39:01;;;;;;;46.65;6.55;;;;;;;;;;5021371;28;20631;-63
2022/02/08 23:41:28;;;;;;;40.67;4.85;;;;;;;;;;5023298;28;20089;-63
2022/02/08 23:43:56;;;;;;;47.58;6.25;;;;;;;;;;5021535;28;20092;-63
2022/02/08 23:46:29;;;;;;;64.15;7.32;;;;;;;;;;5020768;28;20092;-63
2022/02/08 23:51:25;;;;;;;41.55;6.00;;;;;;;;;;5026362;28;20077;-64
2022/02/08 23:54:02;;;;;;;34.05;4.93;;;;;;;;;;5022505;28;20136;-64